Time;durP1;ratioP1;P1;durP2;ratioP2;P2;SDS_P1;SDS_P2;PMS_P1;PMS_P2;Temp;Humidity;BMP_temperature;BMP_pressure;BME280_temperature;BME280_humidity;BME280_pressure;Samples;Min_cycle;Max_cycle;Signal;HPM_P1;HPM_P2
2022/09/11 00:01:59;;;;;;;0.43;0.43;;;;;;;18.90;64.18;101872.69;5088486;28;20075;-76
2022/09/11 00:04:26;;;;;;;0.03;0.03;;;;;;;18.90;64.19;101875.38;5091390;28;20069;-76
2022/09/11 00:06:52;;;;;;;0.20;0.20;;;;;;;18.90;64.02;101861.94;5094973;28;20028;-77
2022/09/11 00:09:18;;;;;;;0.13;0.13;;;;;;;18.90;64.16;101870.94;5085707;28;20028;-77
2022/09/11 00:11:44;;;;;;;0.10;0.10;;;;;;;18.90;64.18;101870.00;5092966;28;20036;-77
2022/09/11 00:14:13;;;;;;;0.00;0.00;;;;;;;18.90;64.31;101865.56;5092898;28;20516;-77
2022/09/11 00:16:43;;;;;;;0.00;0.00;;;;;;;18.90;64.37;101864.63;5092387;28;20032;-76
2022/09/11 00:19:13;;;;;;;0.10;0.10;;;;;;;18.90;64.35;101870.00;5097916;28;20038;-77
2022/09/11 00:21:39;;;;;;;1.25;0.65;;;;;;;18.88;64.52;101863.84;5088932;28;20032;-77
2022/09/11 00:24:08;;;;;;;0.40;0.40;;;;;;;18.88;64.26;101861.16;5097386;28;20032;-78
2022/09/11 00:26:35;;;;;;;0.20;0.20;;;;;;;18.88;64.04;101866.53;5093545;28;20525;-78
2022/09/11 00:29:02;;;;;;;0.10;0.10;;;;;;;18.85;63.88;101861.25;5091330;28;20020;-76
2022/09/11 00:31:31;;;;;;;0.10;0.10;;;;;;;18.84;64.12;101870.22;5095306;28;20039;-77
2022/09/11 00:33:57;;;;;;;0.25;0.25;;;;;;;18.84;64.66;101872.91;5093144;28;20031;-77
2022/09/11 00:36:27;;;;;;;0.38;0.38;;;;;;;18.84;64.45;101868.44;5098805;28;20566;-78
2022/09/11 00:38:55;;;;;;;0.10;0.10;;;;;;;18.85;64.39;101866.63;5097396;28;20024;-77
2022/09/11 00:41:25;;;;;;;0.20;0.20;;;;;;;18.88;64.42;101869.22;5092544;28;20032;-77
2022/09/11 00:46:36;;;;;;;0.80;0.32;;;;;;;18.90;64.13;101865.56;5106013;27;20752;-75
2022/09/11 00:49:13;;;;;;;0.10;0.10;;;;;;;18.88;64.33;101862.00;5081584;28;20025;-77
2022/09/11 00:51:40;;;;;;;0.75;0.75;;;;;;;18.86;64.33;101857.63;5083708;28;20032;-77
2022/09/11 00:54:11;;;;;;;0.10;0.10;;;;;;;18.89;64.25;101865.56;5079080;28;20094;-77
2022/09/11 00:56:41;;;;;;;3.20;1.23;;;;;;;18.91;64.37;101864.59;5077910;28;20044;-77
2022/09/11 00:59:07;;;;;;;0.10;0.10;;;;;;;18.96;64.34;101868.94;5079411;28;20039;-77
2022/09/11 01:01:34;;;;;;;0.10;0.10;;;;;;;19.03;64.17;101865.94;5078596;28;20033;-77
2022/09/11 01:04:04;;;;;;;0.10;0.10;;;;;;;19.13;64.20;101870.94;5076600;28;20081;-77
2022/09/11 01:06:32;;;;;;;0.10;0.10;;;;;;;19.18;64.37;101871.66;5081374;28;20048;-75
2022/09/11 01:08:58;;;;;;;0.52;0.32;;;;;;;19.22;64.50;101865.22;5083260;28;20070;-75
2022/09/11 01:11:46;;;;;;;0.20;0.20;;;;;;;19.35;64.73;101879.91;5078576;28;20040;-75
2022/09/11 01:17:42;;;;;;;0.10;0.10;;;;;;;19.38;64.44;101873.53;5059434;28;20912;-75
2022/09/11 01:23:16;;;;;;;0.10;0.10;;;;;;;19.34;64.28;101879.94;5082951;27;20766;-74
2022/09/11 01:28:49;;;;;;;1.67;0.35;;;;;;;19.20;64.32;101872.44;5099217;27;20415;-73
2022/09/11 01:31:23;;;;;;;0.13;0.13;;;;;;;19.17;64.33;101872.59;5082600;28;20029;-74
2022/09/11 01:33:58;;;;;;;0.10;0.10;;;;;;;19.13;64.20;101877.19;5084075;28;20094;-75
2022/09/11 01:36:33;;;;;;;0.57;0.57;;;;;;;19.10;64.30;101881.81;5082374;28;20021;-74
2022/09/11 01:39:03;;;;;;;0.10;0.10;;;;;;;19.03;64.18;101878.50;5079741;28;20051;-75
2022/09/11 01:41:45;;;;;;;0.10;0.10;;;;;;;19.00;64.12;101873.25;5086843;28;20115;-75
2022/09/11 01:46:51;;;;;;;0.10;0.10;;;;;;;18.88;64.13;101882.63;5082565;27;20351;-75
2022/09/11 01:52:01;;;;;;;0.35;0.35;;;;;;;18.85;64.34;101874.69;5062041;28;20406;-75
2022/09/11 01:54:33;;;;;;;0.10;0.10;;;;;;;18.83;64.63;101873.84;5041572;28;20058;-77
2022/09/11 01:57:05;;;;;;;0.55;0.55;;;;;;;18.82;64.73;101875.66;5039028;28;20108;-76
2022/09/11 01:59:39;;;;;;;0.45;0.45;;;;;;;18.84;64.48;101880.97;5043656;28;20065;-76
2022/09/11 02:02:09;;;;;;;0.10;0.10;;;;;;;18.80;64.10;101884.72;5050700;28;20036;-76
2022/09/11 02:04:43;;;;;;;0.25;0.25;;;;;;;18.79;64.09;101874.91;5046099;28;20025;-77
2022/09/11 02:07:22;;;;;;;1.10;0.60;;;;;;;18.78;64.04;101878.53;5047153;28;20056;-77
2022/09/11 02:10:05;;;;;;;0.10;0.10;;;;;;;18.71;63.75;101884.13;5046811;28;20025;-77
2022/09/11 02:12:41;;;;;;;0.10;0.10;;;;;;;18.65;64.09;101881.66;5045763;28;20507;-77
2022/09/11 02:15:09;;;;;;;0.30;0.30;;;;;;;18.58;64.37;101885.53;5045677;28;20076;-77
2022/09/11 02:20:19;;;;;;;0.05;0.05;;;;;;;18.50;64.16;101896.53;5066674;28;20419;-74
2022/09/11 02:22:47;;;;;;;0.20;0.20;;;;;;;18.46;64.12;101892.22;5067202;28;20041;-74
2022/09/11 02:25:14;;;;;;;0.10;0.10;;;;;;;18.45;64.69;101895.81;5066150;28;20087;-75
2022/09/11 02:27:40;;;;;;;0.10;0.10;;;;;;;18.42;64.42;101896.81;5064320;28;20056;-74
2022/09/11 02:30:07;;;;;;;0.10;0.10;;;;;;;18.42;64.43;101898.63;5062470;28;20033;-74
2022/09/11 02:32:39;;;;;;;0.85;0.85;;;;;;;18.42;64.78;101901.31;5056977;28;20025;-75
2022/09/11 02:35:06;;;;;;;0.15;0.15;;;;;;;18.39;64.90;101901.41;5061156;28;20163;-76
2022/09/11 02:37:48;;;;;;;0.20;0.20;;;;;;;18.46;64.67;101902.09;5068935;28;20032;-76
2022/09/11 02:48:44;;;;;;;0.10;0.10;;;;;;;18.41;64.47;101892.38;5059239;28;20142;-77
2022/09/11 02:51:45;;;;;;;0.40;0.40;;;;;;;18.29;64.69;101895.50;5051750;28;20041;-75
2022/09/11 02:54:51;;;;;;;0.00;0.00;;;;;;;18.31;64.41;101890.97;5045417;28;20041;-76
2022/09/11 02:57:33;;;;;;;0.10;0.10;;;;;;;18.17;64.74;101899.50;5047653;28;20036;-76
2022/09/11 03:00:03;;;;;;;0.47;0.43;;;;;;;18.13;64.92;101896.97;5044662;28;20087;-76
2022/09/11 03:02:32;;;;;;;0.25;0.25;;;;;;;18.14;64.83;101912.16;5047741;28;20111;-76
2022/09/11 03:04:58;;;;;;;0.10;0.10;;;;;;;18.15;64.57;101901.34;5048289;28;20037;-77
2022/09/11 03:07:25;;;;;;;0.10;0.10;;;;;;;18.12;64.49;101904.16;5047482;28;20021;-75
2022/09/11 03:09:51;;;;;;;0.10;0.10;;;;;;;18.10;65.01;101906.88;5048588;28;20463;-76
2022/09/11 03:12:18;;;;;;;0.10;0.10;;;;;;;18.10;65.01;101911.38;5052764;28;20040;-76
2022/09/11 03:14:44;;;;;;;0.00;0.00;;;;;;;18.09;64.46;101909.63;5046277;28;20044;-76
2022/09/11 03:17:10;;;;;;;0.30;0.30;;;;;;;18.05;64.96;101903.47;5050656;28;20029;-77
2022/09/11 03:19:36;;;;;;;0.10;0.10;;;;;;;18.04;65.00;101903.53;5046746;28;20029;-77
2022/09/11 03:22:02;;;;;;;0.22;0.22;;;;;;;18.04;65.04;101908.91;5047179;28;20022;-77
2022/09/11 03:24:29;;;;;;;0.30;0.30;;;;;;;18.02;65.06;101914.31;5049304;28;20039;-77
2022/09/11 03:26:55;;;;;;;0.10;0.10;;;;;;;18.01;64.79;101912.56;5049084;28;20041;-76
2022/09/11 03:29:21;;;;;;;0.10;0.10;;;;;;;17.99;64.76;101917.09;5052061;28;20044;-77
2022/09/11 03:31:47;;;;;;;0.20;0.20;;;;;;;17.98;65.08;101917.16;5044471;28;20580;-76
2022/09/11 03:34:13;;;;;;;0.17;0.17;;;;;;;17.97;65.04;101918.09;5050319;28;20029;-76
2022/09/11 03:36:40;;;;;;;0.10;0.10;;;;;;;17.96;65.27;101914.53;5050149;28;20028;-76
2022/09/11 03:39:06;;;;;;;0.10;0.10;;;;;;;17.94;64.92;101917.28;5042492;28;20029;-76
2022/09/11 03:41:32;;;;;;;0.10;0.10;;;;;;;17.93;64.42;101910.13;5046586;28;20033;-76
2022/09/11 03:43:58;;;;;;;0.10;0.10;;;;;;;17.91;64.96;101916.47;5045871;28;20033;-76
2022/09/11 03:46:24;;;;;;;0.10;0.10;;;;;;;17.89;65.25;101912.94;5049229;28;20017;-76
2022/09/11 03:48:52;;;;;;;0.35;0.35;;;;;;;17.88;65.15;101908.50;5048746;28;20406;-76
2022/09/11 03:51:18;;;;;;;0.90;0.57;;;;;;;17.88;65.21;101913.88;5044784;28;20040;-76
2022/09/11 03:53:44;;;;;;;0.10;0.10;;;;;;;17.86;65.04;101908.56;5041475;28;20037;-76
2022/09/11 03:56:11;;;;;;;0.10;0.10;;;;;;;17.85;65.12;101914.00;5046253;28;20031;-75
2022/09/11 03:58:37;;;;;;;0.10;0.10;;;;;;;17.89;64.60;101918.31;5031724;28;20045;-75
2022/09/11 04:01:13;;;;;;;0.10;0.10;;;;;;;17.90;64.90;101917.38;5033937;28;20119;-77
2022/09/11 04:03:40;;;;;;;0.10;0.10;;;;;;;17.81;65.15;101915.91;5031174;28;20207;-76
2022/09/11 04:06:07;;;;;;;0.10;0.10;;;;;;;17.79;65.11;101924.00;5028203;28;20640;-75
2022/09/11 04:08:33;;;;;;;0.17;0.17;;;;;;;17.77;65.14;101920.47;5030231;28;20048;-76
2022/09/11 04:11:03;;;;;;;2.25;0.52;;;;;;;17.76;65.06;101924.06;5029783;28;20121;-76
2022/09/11 04:13:31;;;;;;;0.40;0.40;;;;;;;17.74;65.33;101917.03;5031884;28;20174;-77
2022/09/11 04:15:59;;;;;;;0.10;0.10;;;;;;;17.74;65.30;101917.88;5037509;28;20152;-77
2022/09/11 04:18:26;;;;;;;0.10;0.10;;;;;;;17.71;64.82;101909.09;5033522;28;20054;-76
2022/09/11 04:20:52;;;;;;;0.32;0.32;;;;;;;17.69;64.68;101910.94;5036157;28;20112;-76
2022/09/11 04:23:18;;;;;;;0.10;0.10;;;;;;;17.65;64.67;101910.16;5038040;28;20041;-76
2022/09/11 04:25:44;;;;;;;0.10;0.10;;;;;;;17.65;64.78;101915.53;5032541;28;20496;-76
2022/09/11 04:28:10;;;;;;;0.10;0.10;;;;;;;17.64;65.21;101919.13;5036120;28;20059;-75
2022/09/11 04:30:37;;;;;;;0.10;0.10;;;;;;;17.65;65.13;101920.88;5034159;28;20130;-76
2022/09/11 04:33:04;;;;;;;0.10;0.10;;;;;;;17.63;64.80;101922.72;5039211;28;20033;-76
2022/09/11 04:35:31;;;;;;;0.10;0.10;;;;;;;17.59;64.89;101927.31;5036418;28;20073;-76
2022/09/11 04:37:57;;;;;;;0.10;0.10;;;;;;;17.59;65.31;101934.47;5034448;28;20038;-77
2022/09/11 04:40:23;;;;;;;0.10;0.10;;;;;;;17.60;65.45;101929.06;5033036;28;20491;-75
2022/09/11 04:42:50;;;;;;;0.10;0.10;;;;;;;17.62;65.81;101931.72;5031057;28;20034;-76
2022/09/11 04:45:16;;;;;;;0.10;0.10;;;;;;;17.63;65.37;101936.13;5032354;28;20028;-76
2022/09/11 04:47:42;;;;;;;0.75;0.75;;;;;;;17.60;64.89;101929.06;5030369;28;20026;-76
2022/09/11 04:50:09;;;;;;;0.10;0.10;;;;;;;17.61;65.29;101941.53;5029683;28;20029;-77
2022/09/11 04:52:35;;;;;;;0.38;0.38;;;;;;;17.61;65.13;101946.03;5027115;28;20065;-76
2022/09/11 04:55:01;;;;;;;0.10;0.10;;;;;;;17.60;65.23;101953.19;5029928;28;20039;-76
2022/09/11 04:57:30;;;;;;;0.10;0.10;;;;;;;17.60;65.06;101946.94;5030410;28;20096;-76
2022/09/11 04:59:57;;;;;;;0.08;0.08;;;;;;;17.60;65.39;101944.28;5028573;28;20033;-76
2022/09/11 05:02:23;;;;;;;0.10;0.10;;;;;;;17.59;65.33;101942.50;5029195;28;20056;-77
2022/09/11 05:04:49;;;;;;;0.13;0.13;;;;;;;17.60;65.64;101952.31;5032069;28;20029;-74
2022/09/11 05:07:15;;;;;;;0.10;0.10;;;;;;;17.59;65.09;101954.09;5033445;28;20044;-75
2022/09/11 05:09:41;;;;;;;0.00;0.00;;;;;;;17.58;65.30;101952.38;5026795;28;20059;-75
2022/09/11 05:12:08;;;;;;;0.10;0.10;;;;;;;17.57;65.32;101960.44;5032096;28;20495;-75
2022/09/11 05:14:34;;;;;;;0.55;0.38;;;;;;;17.55;65.32;101962.31;5033315;28;20045;-76
2022/09/11 05:17:00;;;;;;;0.10;0.10;;;;;;;17.56;65.51;101956.03;5031964;28;20068;-75
2022/09/11 05:19:26;;;;;;;1.45;0.75;;;;;;;17.59;65.00;101963.94;5029359;28;20041;-76
2022/09/11 05:21:53;;;;;;;0.10;0.10;;;;;;;17.55;65.38;101967.66;5027079;28;20087;-76
2022/09/11 05:24:20;;;;;;;0.10;0.10;;;;;;;17.56;65.03;101972.09;5029405;28;20125;-76
2022/09/11 05:26:46;;;;;;;0.10;0.10;;;;;;;17.55;65.06;101975.69;5032822;28;20035;-76
2022/09/11 05:29:14;;;;;;;2.00;0.68;;;;;;;17.56;65.18;101982.81;5033178;28;20037;-75
2022/09/11 05:31:41;;;;;;;0.10;0.10;;;;;;;17.55;65.29;101989.09;5035784;28;20391;-76
2022/09/11 05:34:07;;;;;;;0.13;0.13;;;;;;;17.55;65.60;101991.78;5033680;28;20567;-76
2022/09/11 05:36:34;;;;;;;0.17;0.17;;;;;;;17.56;65.44;101994.41;5034187;28;20080;-77
2022/09/11 05:39:00;;;;;;;2.75;0.47;;;;;;;17.59;65.76;101990.75;5028200;28;20032;-76
2022/09/11 05:41:27;;;;;;;0.10;0.10;;;;;;;17.61;65.88;101991.59;5031546;28;20134;-76
2022/09/11 05:43:53;;;;;;;0.47;0.47;;;;;;;17.65;65.64;101995.06;5032270;28;20041;-76
2022/09/11 05:46:20;;;;;;;0.10;0.10;;;;;;;17.66;65.96;101992.31;5027015;28;20030;-76
2022/09/11 05:48:47;;;;;;;1.38;0.90;;;;;;;17.69;65.62;101999.38;5030256;28;20026;-76
2022/09/11 05:51:15;;;;;;;0.15;0.15;;;;;;;17.74;65.24;102000.13;5026820;28;20132;-76
2022/09/11 05:53:42;;;;;;;0.38;0.38;;;;;;;17.71;65.24;102001.09;5033030;28;20063;-77
2022/09/11 05:56:11;;;;;;;0.10;0.10;;;;;;;17.72;65.27;101999.28;5026082;28;20025;-76
2022/09/11 05:58:38;;;;;;;0.10;0.10;;;;;;;17.73;65.25;102009.97;5032405;28;20025;-77
2022/09/11 06:04:20;;;;;;;0.40;0.40;;;;;;;17.79;65.74;102004.41;5036558;28;20135;-74
2022/09/11 06:06:47;;;;;;;1.27;0.47;;;;;;;17.83;66.08;102004.31;5020781;28;20033;-75
2022/09/11 06:09:14;;;;;;;0.10;0.10;;;;;;;17.90;65.85;102000.50;5028228;28;20037;-74
2022/09/11 06:11:40;;;;;;;0.00;0.00;;;;;;;17.93;65.40;102003.97;5025727;28;20108;-75
2022/09/11 06:14:07;;;;;;;0.47;0.47;;;;;;;17.96;65.51;102005.69;5027575;28;20029;-75
2022/09/11 06:16:34;;;;;;;0.10;0.10;;;;;;;18.01;65.45;102019.84;5026236;28;20033;-75
2022/09/11 06:19:00;;;;;;;0.20;0.20;;;;;;;18.04;65.17;102021.53;5026477;28;20033;-75
2022/09/11 06:21:28;;;;;;;0.30;0.30;;;;;;;18.07;65.38;102014.28;5021815;28;20408;-74
2022/09/11 06:23:54;;;;;;;0.20;0.20;;;;;;;18.11;65.41;102018.59;5026292;28;20033;-73
2022/09/11 06:26:23;;;;;;;0.10;0.10;;;;;;;18.16;65.52;102012.22;5025590;28;20030;-74
2022/09/11 06:28:50;;;;;;;0.10;0.10;;;;;;;18.22;65.43;102017.38;5017861;28;20508;-74
2022/09/11 06:31:19;;;;;;;0.47;0.47;;;;;;;18.27;65.22;102015.41;5014749;28;20038;-73
2022/09/11 06:33:46;;;;;;;0.20;0.20;;;;;;;18.28;65.27;102022.53;5016033;28;20056;-73
2022/09/11 06:36:14;;;;;;;0.55;0.55;;;;;;;18.27;65.38;102023.47;5018171;28;20034;-74
2022/09/11 06:38:41;;;;;;;0.10;0.10;;;;;;;18.30;65.70;102020.66;5021170;28;20515;-73
2022/09/11 06:41:10;;;;;;;0.30;0.30;;;;;;;18.37;65.68;102016.84;5021018;28;20033;-74
2022/09/11 06:43:37;;;;;;;0.10;0.10;;;;;;;18.42;65.35;102020.25;5017920;28;20022;-75
2022/09/11 06:48:43;;;;;;;0.10;0.10;;;;;;;18.53;65.53;102010.94;5046236;28;20944;-72
2022/09/11 06:51:12;;;;;;;0.10;0.10;;;;;;;18.64;65.20;102008.78;5026666;28;20041;-73
2022/09/11 06:53:40;;;;;;;0.30;0.30;;;;;;;18.71;64.80;102010.28;5018754;28;20034;-74
2022/09/11 06:56:11;;;;;;;0.85;0.65;;;;;;;18.78;64.79;102007.41;5017800;28;20042;-73
2022/09/11 06:58:38;;;;;;;0.10;0.10;;;;;;;18.83;64.64;102008.09;5020494;28;20022;-72
2022/09/11 07:01:07;;;;;;;0.05;0.05;;;;;;;18.89;64.68;102013.25;5021429;28;20029;-73
2022/09/11 07:03:33;;;;;;;0.85;0.85;;;;;;;18.94;64.58;102011.34;5019482;28;20073;-73
2022/09/11 07:05:59;;;;;;;0.20;0.20;;;;;;;18.98;64.60;102012.06;5017782;28;20034;-77
2022/09/11 07:08:26;;;;;;;0.10;0.10;;;;;;;19.04;64.87;102012.75;5018715;28;20088;-76
2022/09/11 07:10:52;;;;;;;0.00;0.00;;;;;;;19.08;64.75;102014.38;5020315;28;20407;-76
2022/09/11 07:13:18;;;;;;;0.10;0.10;;;;;;;19.14;64.69;102012.38;5020830;28;20037;-77
2022/09/11 07:15:47;;;;;;;0.10;0.10;;;;;;;19.19;64.62;102005.03;5020361;28;20026;-76
2022/09/11 07:18:14;;;;;;;0.10;0.10;;;;;;;19.25;64.69;102015.53;5019478;28;20033;-76
2022/09/11 07:20:40;;;;;;;0.10;0.10;;;;;;;19.29;64.61;102011.81;5021187;28;20886;-76
2022/09/11 07:23:07;;;;;;;0.10;0.10;;;;;;;19.34;64.79;102014.31;5023288;28;20499;-76
2022/09/11 07:25:37;;;;;;;0.17;0.17;;;;;;;19.42;64.55;102020.28;5021962;28;20052;-77
2022/09/11 07:28:03;;;;;;;0.10;0.10;;;;;;;19.47;64.53;102020.97;5023156;28;20438;-76
2022/09/11 07:30:31;;;;;;;0.10;0.10;;;;;;;19.52;64.40;102024.34;5024841;28;20025;-76
2022/09/11 07:32:57;;;;;;;0.10;0.10;;;;;;;19.58;64.49;102028.63;5019327;28;20061;-75
2022/09/11 07:35:24;;;;;;;0.20;0.20;;;;;;;19.63;64.36;102032.00;5023148;28;20044;-76
2022/09/11 07:37:51;;;;;;;0.10;0.10;;;;;;;19.67;64.52;102041.69;5020320;28;20041;-76
2022/09/11 07:40:17;;;;;;;0.08;0.08;;;;;;;19.76;64.66;102047.66;5015957;28;20100;-78
2022/09/11 07:42:44;;;;;;;0.10;0.10;;;;;;;19.81;64.50;102041.19;5023494;28;20632;-77
2022/09/11 07:45:10;;;;;;;0.85;0.85;;;;;;;19.86;64.72;102038.31;5018470;28;20437;-77
2022/09/11 07:47:37;;;;;;;0.20;0.20;;;;;;;19.91;64.51;102039.00;5019103;28;20032;-76
2022/09/11 07:50:04;;;;;;;0.17;0.17;;;;;;;19.97;64.39;102049.50;5021252;28;20507;-75
2022/09/11 07:52:31;;;;;;;0.20;0.20;;;;;;;20.04;64.51;102053.72;5018833;28;20459;-74
2022/09/11 07:54:57;;;;;;;0.10;0.10;;;;;;;20.08;64.63;102042.84;5019759;28;20487;-76
2022/09/11 07:57:23;;;;;;;0.30;0.30;;;;;;;20.16;64.64;102046.06;5017330;28;20037;-76
2022/09/11 07:59:50;;;;;;;0.00;0.00;;;;;;;20.20;64.67;102048.56;5004619;28;20026;-76
2022/09/11 08:02:16;;;;;;;0.10;0.10;;;;;;;20.30;64.37;102041.00;5005225;28;20125;-76
2022/09/11 08:04:43;;;;;;;0.10;0.10;;;;;;;20.40;64.44;102043.28;4999493;28;20045;-76
2022/09/11 08:07:09;;;;;;;0.10;0.10;;;;;;;20.49;64.26;102048.28;5001391;28;20053;-74
2022/09/11 08:09:35;;;;;;;1.00;0.65;;;;;;;20.56;64.20;102049.78;4998155;28;20411;-73
2022/09/11 08:12:02;;;;;;;0.05;0.05;;;;;;;20.65;64.11;102052.06;5002387;28;20529;-72
2022/09/11 08:14:28;;;;;;;0.10;0.10;;;;;;;20.72;64.17;102047.31;5007612;28;20582;-73
2022/09/11 08:16:55;;;;;;;0.20;0.20;;;;;;;20.80;64.00;102049.69;5016029;28;20057;-73
2022/09/11 08:19:23;;;;;;;0.10;0.10;;;;;;;20.89;63.87;102062.75;5002195;28;20585;-73
2022/09/11 08:21:51;;;;;;;0.38;0.38;;;;;;;20.96;63.80;102049.88;5001720;28;20026;-73
2022/09/11 08:24:19;;;;;;;0.20;0.20;;;;;;;21.08;63.56;102057.41;5005220;28;20058;-73
2022/09/11 08:26:45;;;;;;;0.05;0.05;;;;;;;21.24;63.76;102060.28;5007125;28;20470;-73
2022/09/11 08:29:11;;;;;;;0.10;0.10;;;;;;;21.37;63.50;102062.41;5002851;28;20516;-73
2022/09/11 08:31:37;;;;;;;0.20;0.20;;;;;;;21.43;62.69;102054.94;4997672;28;20114;-73
2022/09/11 08:34:03;;;;;;;0.35;0.35;;;;;;;21.50;62.21;102060.91;4995747;28;20026;-75
2022/09/11 08:36:29;;;;;;;0.10;0.10;;;;;;;21.56;62.09;102062.44;4999504;28;20088;-75
2022/09/11 08:38:58;;;;;;;0.10;0.10;;;;;;;21.62;62.06;102057.66;5003031;28;20037;-73
2022/09/11 08:46:43;;;;;;;0.10;0.10;;;;;;;21.81;60.51;102054.94;5059871;27;20425;-75
2022/09/11 08:52:00;;;;;;;0.10;0.10;;;;;;;22.03;61.34;102063.81;5059808;28;20776;-73
2022/09/11 08:54:32;;;;;;;0.45;0.20;;;;;;;22.09;60.96;102068.91;5034109;28;20124;-74
2022/09/11 09:02:40;;;;;;;0.10;0.10;;;;;;;22.14;60.85;102073.16;5089125;27;20408;-74
2022/09/11 09:05:24;;;;;;;0.10;0.10;;;;;;;22.21;60.70;102062.91;5055474;28;20029;-73
2022/09/11 09:18:55;;;;;;;0.10;0.10;;;;;;;22.57;60.02;102078.25;5056988;28;20402;-74
2022/09/11 09:21:30;;;;;;;0.10;0.10;;;;;;;22.65;59.90;102082.38;5042456;28;20052;-73
2022/09/11 09:24:00;;;;;;;0.20;0.20;;;;;;;22.68;60.21;102077.69;5041654;28;20028;-73
2022/09/11 09:26:38;;;;;;;0.05;0.05;;;;;;;22.84;59.46;102075.06;5038248;28;20040;-73
2022/09/11 09:29:12;;;;;;;0.10;0.10;;;;;;;22.94;59.23;102078.16;5040093;28;20030;-73
2022/09/11 09:31:41;;;;;;;0.30;0.30;;;;;;;23.06;58.99;102077.50;5040363;28;20033;-74
2022/09/11 09:34:16;;;;;;;0.30;0.30;;;;;;;23.20;59.15;102074.09;5043802;28;20083;-74
2022/09/11 09:39:25;;;;;;;0.10;0.10;;;;;;;23.47;58.44;102073.53;5079799;27;20409;-73
2022/09/11 09:44:57;;;;;;;0.00;0.00;;;;;;;23.84;57.42;102078.72;5054431;28;20417;-74
2022/09/11 09:47:23;;;;;;;0.05;0.05;;;;;;;23.88;57.61;102074.91;5053302;28;20052;-74
2022/09/11 09:49:51;;;;;;;0.55;0.55;;;;;;;24.02;57.60;102074.13;5047616;28;20425;-74
2022/09/11 09:52:20;;;;;;;0.00;0.00;;;;;;;24.15;56.73;102074.28;5051111;28;20029;-73
2022/09/11 09:54:57;;;;;;;0.32;0.32;;;;;;;24.25;55.98;102080.03;5053059;28;20036;-73
2022/09/11 09:57:27;;;;;;;0.17;0.17;;;;;;;24.32;53.98;102081.44;5047167;28;20037;-73
2022/09/11 10:02:42;;;;;;;0.22;0.22;;;;;;;24.60;53.63;102080.69;5091798;27;20401;-74
2022/09/11 10:05:31;;;;;;;0.00;0.00;;;;;;;24.82;55.32;102072.16;5088996;28;20048;-74
2022/09/11 10:08:00;;;;;;;0.25;0.25;;;;;;;24.79;53.22;102085.00;5088639;28;20032;-73
2022/09/11 10:10:30;;;;;;;0.20;0.20;;;;;;;24.80;53.75;102075.91;5092232;28;20024;-74
2022/09/11 10:13:00;;;;;;;0.88;0.35;;;;;;;24.75;52.30;102072.59;5092365;28;20047;-72
2022/09/11 10:15:27;;;;;;;0.00;0.00;;;;;;;24.71;52.37;102075.50;5089452;28;20032;-74
2022/09/11 10:18:16;;;;;;;0.20;0.20;;;;;;;24.80;55.15;102071.38;5090412;28;20516;-74
2022/09/11 10:20:43;;;;;;;0.00;0.00;;;;;;;24.87;54.17;102064.59;5091697;28;20111;-74
2022/09/11 10:23:26;;;;;;;0.00;0.00;;;;;;;24.94;53.01;102066.94;5095772;28;20577;-73
2022/09/11 10:25:53;;;;;;;0.17;0.17;;;;;;;24.70;52.82;102065.63;5087835;28;20027;-74
2022/09/11 10:28:29;;;;;;;0.10;0.10;;;;;;;24.59;53.79;102067.22;5091540;28;20129;-74
2022/09/11 10:31:01;;;;;;;0.00;0.00;;;;;;;24.40;54.21;102065.63;5087025;28;20087;-74
2022/09/11 10:33:37;;;;;;;0.10;0.10;;;;;;;24.32;54.48;102060.63;5090769;28;20031;-74
2022/09/11 10:36:07;;;;;;;0.17;0.17;;;;;;;24.25;54.27;102067.38;5090166;28;20039;-74
2022/09/11 10:38:50;;;;;;;0.10;0.10;;;;;;;24.16;54.67;102066.09;5091486;28;20119;-74
2022/09/11 10:41:33;;;;;;;0.00;0.00;;;;;;;24.13;53.99;102068.97;5089360;28;20055;-74
2022/09/11 10:44:11;;;;;;;;;;;;;;;24.17;55.33;102062.41;5092164;28;20156;-76
2022/09/11 10:46:40;;;;;;;0.05;0.05;;;;;;;23.97;54.97;102063.56;5093542;28;19912;-76
2022/09/11 10:52:15;;;;;;;0.43;0.43;;;;;;;24.05;55.66;102066.72;5054583;28;20411;-76
2022/09/11 10:55:04;;;;;;;0.00;0.00;;;;;;;24.23;55.25;102055.75;5033927;28;20394;-76
2022/09/11 11:09:05;;;;;;;0.00;0.00;;;;;;;24.74;48.63;102054.63;5057574;28;20419;-75
2022/09/11 11:18:40;;;;;;;0.17;0.17;;;;;;;24.89;50.91;102052.81;5050706;28;20371;-75
2022/09/11 11:21:32;;;;;;;0.00;0.00;;;;;;;24.96;51.78;102055.03;5049748;27;20029;-77
2022/09/11 11:29:52;;;;;;;0.00;0.00;;;;;;;25.22;51.86;102048.94;5085606;27;20429;-77
2022/09/11 11:32:45;;;;;;;0.05;0.05;;;;;;;25.50;50.73;102043.53;5085777;28;20040;-82
2022/09/11 11:38:08;;;;;;;0.05;0.05;;;;;;;25.99;48.13;102044.00;5122580;27;20774;-81
2022/09/11 11:41:00;;;;;;;0.28;0.28;;;;;;;26.21;48.38;102039.88;5103145;28;20501;-83
2022/09/11 11:43:31;;;;;;;0.00;0.00;;;;;;;26.28;49.92;102041.19;5105409;27;20366;-83
2022/09/11 11:46:01;;;;;;;0.10;0.10;;;;;;;26.39;48.75;102035.88;5106416;28;20027;-81
2022/09/11 11:48:39;;;;;;;0.28;0.28;;;;;;;26.55;48.68;102038.41;5106299;28;20293;-82
2022/09/11 11:51:10;;;;;;;0.00;0.00;;;;;;;26.69;47.44;102031.16;5108556;28;20397;-83
2022/09/11 11:56:36;;;;;;;0.10;0.10;;;;;;;27.04;48.50;102027.81;5113175;27;1185264;-76
2022/09/11 11:59:16;;;;;;;0.00;0.00;;;;;;;27.32;47.42;102023.13;5135931;27;20058;-76
2022/09/11 12:04:58;;;;;;;0.00;0.00;;;;;;;27.62;47.91;102024.63;5050363;28;20426;-74
2022/09/11 12:07:30;;;;;;;0.00;0.00;;;;;;;27.51;47.00;102022.69;5041602;28;20103;-75
2022/09/11 12:09:59;;;;;;;0.10;0.10;;;;;;;27.36;45.91;102022.78;5047311;28;20032;-75
2022/09/11 12:12:29;;;;;;;0.00;0.00;;;;;;;27.05;45.41;102027.72;5047095;28;20032;-75
2022/09/11 12:15:05;;;;;;;0.00;0.00;;;;;;;26.79;46.48;102035.88;5037506;28;20030;-75
2022/09/11 12:17:34;;;;;;;0.20;0.20;;;;;;;26.53;46.86;102032.25;5036609;28;20408;-75
2022/09/11 12:20:40;;;;;;;0.10;0.10;;;;;;;26.57;46.86;102030.19;5042622;28;20037;-75
2022/09/11 12:28:44;;;;;;;0.10;0.10;;;;;;;27.10;45.10;102017.41;5075631;27;20358;-77
2022/09/11 12:31:13;;;;;;;0.10;0.10;;;;;;;27.31;45.23;102005.91;5090745;28;20077;-76
2022/09/11 12:36:24;;;;;;;0.10;0.10;;;;;;;27.63;44.19;102002.72;5093445;27;20178;-74
2022/09/11 12:38:58;;;;;;;0.00;0.00;;;;;;;27.79;43.65;102005.16;5080281;28;20115;-75
2022/09/11 12:41:32;;;;;;;0.15;0.15;;;;;;;27.89;42.70;101997.19;5076784;28;20070;-75
2022/09/11 12:43:59;;;;;;;0.00;0.00;;;;;;;27.94;43.51;102000.41;5073908;28;20021;-74
2022/09/11 12:51:50;;;;;;;0.10;0.10;;;;;;;28.24;43.09;101993.63;5061583;28;20891;-79
2022/09/11 12:54:38;;;;;;;0.20;0.20;;;;;;;28.47;43.04;101988.25;5038694;28;20092;-79
2022/09/11 12:57:13;;;;;;;0.00;0.00;;;;;;;28.51;42.15;101984.28;5040911;28;20041;-78
2022/09/11 12:59:42;;;;;;;0.00;0.00;;;;;;;28.56;43.05;101971.16;5039934;28;20040;-79
2022/09/11 13:02:32;;;;;;;0.00;0.00;;;;;;;28.51;42.17;101974.25;5029517;28;20026;-78
2022/09/11 13:05:00;;;;;;;0.03;0.03;;;;;;;28.24;42.63;101967.25;5028927;28;20029;-78
2022/09/11 13:07:38;;;;;;;0.00;0.00;;;;;;;28.23;42.48;101965.50;5032160;28;20036;-78
2022/09/11 13:10:08;;;;;;;0.20;0.20;;;;;;;28.31;41.95;101972.22;5029248;28;20044;-78
2022/09/11 13:15:32;;;;;;;0.20;0.20;;;;;;;28.70;42.57;101968.25;5085705;27;20380;-87
2022/09/11 13:17:58;;;;;;;0.10;0.10;;;;;;;28.69;41.04;101954.72;5061137;28;20104;-87
2022/09/11 13:20:24;;;;;;;0.00;0.00;;;;;;;28.74;39.37;101966.13;5057673;28;20044;-86
2022/09/11 13:22:51;;;;;;;0.20;0.20;;;;;;;28.77;41.55;101968.59;5059057;28;20998;-86
2022/09/11 13:25:20;;;;;;;0.00;0.00;;;;;;;28.83;41.13;101962.66;5061438;28;20047;-87
2022/09/11 13:27:50;;;;;;;0.25;0.25;;;;;;;28.91;41.56;101953.84;5059184;28;20041;-85
2022/09/11 13:30:20;;;;;;;0.03;0.03;;;;;;;28.97;41.22;101952.50;5058088;28;20045;-85
2022/09/11 13:32:49;;;;;;;0.00;0.00;;;;;;;29.04;40.82;101953.75;5056583;28;20511;-85
2022/09/11 13:35:25;;;;;;;0.00;0.00;;;;;;;29.16;38.73;101947.28;5054922;28;20083;-86
2022/09/11 13:40:46;;;;;;;0.00;0.00;;;;;;;29.43;40.92;101948.75;5050368;28;20415;-78